sensor_id;sensor_type;location;lat;lon;timestamp;pressure;altitude;pressure_sealevel;temperature
45393;BMP280;31129;44.810;10.334;2023-03-23T00:01:48;100646.41;;;16.55
45393;BMP280;31129;44.810;10.334;2023-03-23T00:04:17;100643.22;;;16.46
45393;BMP280;31129;44.810;10.334;2023-03-23T00:06:43;100635.91;;;16.48
45393;BMP280;31129;44.810;10.334;2023-03-23T00:09:12;100640.00;;;16.42
45393;BMP280;31129;44.810;10.334;2023-03-23T00:11:40;100640.00;;;16.42
45393;BMP280;31129;44.810;10.334;2023-03-23T00:14:06;100639.47;;;16.43
45393;BMP280;31129;44.810;10.334;2023-03-23T00:16:39;100640.00;;;16.42
45393;BMP280;31129;44.810;10.334;2023-03-23T00:19:09;100640.78;;;16.37
45393;BMP280;31129;44.810;10.334;2023-03-23T00:21:39;100638.75;;;16.37
45393;BMP280;31129;44.810;10.334;2023-03-23T00:26:32;100641.78;;;16.28
45393;BMP280;31129;44.810;10.334;2023-03-23T00:29:03;100644.03;;;16.30
45393;BMP280;31129;44.810;10.334;2023-03-23T00:31:29;100637.03;;;16.29
45393;BMP280;31129;44.810;10.334;2023-03-23T00:33:57;100638.31;;;16.16
45393;BMP280;31129;44.810;10.334;2023-03-23T00:36:24;100638.06;;;16.20
45393;BMP280;31129;44.810;10.334;2023-03-23T00:38:49;100630.81;;;16.17
45393;BMP280;31129;44.810;10.334;2023-03-23T00:41:15;100631.06;;;16.19
45393;BMP280;31129;44.810;10.334;2023-03-23T00:43:40;100628.81;;;16.23
45393;BMP280;31129;44.810;10.334;2023-03-23T00:46:06;100627.56;;;16.18
45393;BMP280;31129;44.810;10.334;2023-03-23T00:48:36;100619.34;;;16.13
45393;BMP280;31129;44.810;10.334;2023-03-23T00:51:06;100617.34;;;16.13
45393;BMP280;31129;44.810;10.334;2023-03-23T00:53:40;100629.06;;;16.20
45393;BMP280;31129;44.810;10.334;2023-03-23T00:56:07;100617.75;;;16.29
45393;BMP280;31129;44.810;10.334;2023-03-23T00:58:32;100611.31;;;16.21
45393;BMP280;31129;44.810;10.334;2023-03-23T01:00:58;100622.78;;;16.25
45393;BMP280;31129;44.810;10.334;2023-03-23T01:03:23;100614.97;;;16.34
45393;BMP280;31129;44.810;10.334;2023-03-23T01:05:54;100614.03;;;16.26
45393;BMP280;31129;44.810;10.334;2023-03-23T01:08:20;100611.25;;;16.32
45393;BMP280;31129;44.810;10.334;2023-03-23T01:10:46;100617.75;;;16.29
45393;BMP280;31129;44.810;10.334;2023-03-23T01:13:12;100619.81;;;16.17
45393;BMP280;31129;44.810;10.334;2023-03-23T01:15:38;100612.53;;;16.25
45393;BMP280;31129;44.810;10.334;2023-03-23T01:18:04;100614.53;;;16.25
45393;BMP280;31129;44.810;10.334;2023-03-23T01:20:29;100625.84;;;16.21
45393;BMP280;31129;44.810;10.334;2023-03-23T01:22:59;100606.34;;;16.08
45393;BMP280;31129;44.810;10.334;2023-03-23T01:25:32;100608.38;;;15.96
45393;BMP280;31129;44.810;10.334;2023-03-23T01:27:58;100610.88;;;16.05
45393;BMP280;31129;44.810;10.334;2023-03-23T01:30:24;100612.16;;;15.99
45393;BMP280;31129;44.810;10.334;2023-03-23T01:32:50;100603.41;;;15.84
45393;BMP280;31129;44.810;10.334;2023-03-23T01:35:16;100598.97;;;15.75
45393;BMP280;31129;44.810;10.334;2023-03-23T01:37:41;100597.22;;;15.72
45393;BMP280;31129;44.810;10.334;2023-03-23T01:40:08;100594.25;;;15.64
45393;BMP280;31129;44.810;10.334;2023-03-23T01:42:36;100588.78;;;15.48
45393;BMP280;31129;44.810;10.334;2023-03-23T01:47:57;100595.00;;;15.54
45393;BMP280;31129;44.810;10.334;2023-03-23T01:50:26;100590.78;;;15.41
45393;BMP280;31129;44.810;10.334;2023-03-23T01:52:55;100596.78;;;15.34
45393;BMP280;31129;44.810;10.334;2023-03-23T01:55:22;100598.31;;;15.30
45393;BMP280;31129;44.810;10.334;2023-03-23T01:57:49;100596.56;;;15.27
45393;BMP280;31129;44.810;10.334;2023-03-23T02:00:16;100596.78;;;15.23
45393;BMP280;31129;44.810;10.334;2023-03-23T02:02:50;100598.56;;;15.21
45393;BMP280;31129;44.810;10.334;2023-03-23T02:05:26;100599.81;;;15.14
45393;BMP280;31129;44.810;10.334;2023-03-23T02:07:56;100597.81;;;15.09
45393;BMP280;31129;44.810;10.334;2023-03-23T02:10:25;100597.06;;;14.86
45393;BMP280;31129;44.810;10.334;2023-03-23T02:12:50;100596.31;;;14.91
45393;BMP280;31129;44.810;10.334;2023-03-23T02:15:16;100595.53;;;14.80
45393;BMP280;31129;44.810;10.334;2023-03-23T02:17:53;100590.53;;;14.78
45393;BMP280;31129;44.810;10.334;2023-03-23T02:23:17;100600.78;;;14.72
45393;BMP280;31129;44.810;10.334;2023-03-23T02:26:53;100601.81;;;14.69
45393;BMP280;31129;44.810;10.334;2023-03-23T02:33:56;100592.78;;;14.57
45393;BMP280;31129;44.810;10.334;2023-03-23T02:36:39;100594.00;;;14.40
45393;BMP280;31129;44.810;10.334;2023-03-23T02:39:12;100599.69;;;14.31
45393;BMP280;31129;44.810;10.334;2023-03-23T02:42:07;100605.88;;;14.14
45393;BMP280;31129;44.810;10.334;2023-03-23T02:44:35;100600.38;;;14.14
45393;BMP280;31129;44.810;10.334;2023-03-23T02:47:04;100595.59;;;14.04
45393;BMP280;31129;44.810;10.334;2023-03-23T02:49:32;100593.06;;;14.06
45393;BMP280;31129;44.810;10.334;2023-03-23T02:52:02;100590.66;;;14.19
45393;BMP280;31129;44.810;10.334;2023-03-23T02:54:28;100589.41;;;14.20
45393;BMP280;31129;44.810;10.334;2023-03-23T02:56:55;100581.69;;;14.29
45393;BMP280;31129;44.810;10.334;2023-03-23T02:59:26;100578.69;;;14.16
45393;BMP280;31129;44.810;10.334;2023-03-23T03:02:17;100576.97;;;14.24
45393;BMP280;31129;44.810;10.334;2023-03-23T03:04:51;100577.19;;;14.21
45393;BMP280;31129;44.810;10.334;2023-03-23T03:07:32;100571.47;;;14.36
45393;BMP280;31129;44.810;10.334;2023-03-23T03:15:33;100568.81;;;14.63
45393;BMP280;31129;44.810;10.334;2023-03-23T03:18:12;100566.84;;;14.70
45393;BMP280;31129;44.810;10.334;2023-03-23T03:20:47;100568.06;;;14.63
45393;BMP280;31129;44.810;10.334;2023-03-23T03:23:16;100583.53;;;14.55
45393;BMP280;31129;44.810;10.334;2023-03-23T03:25:44;100574.81;;;14.62
45393;BMP280;31129;44.810;10.334;2023-03-23T03:28:18;100577.81;;;14.64
45393;BMP280;31129;44.810;10.334;2023-03-23T03:30:53;100579.53;;;14.61
45393;BMP280;31129;44.810;10.334;2023-03-23T03:33:22;100587.28;;;14.57
45393;BMP280;31129;44.810;10.334;2023-03-23T03:35:54;100584.00;;;14.42
45393;BMP280;31129;44.810;10.334;2023-03-23T03:38:20;100577.25;;;14.43
45393;BMP280;31129;44.810;10.334;2023-03-23T03:40:46;100589.00;;;14.38
45393;BMP280;31129;44.810;10.334;2023-03-23T03:43:11;100590.00;;;14.41
45393;BMP280;31129;44.810;10.334;2023-03-23T03:45:36;100591.69;;;14.33
45393;BMP280;31129;44.810;10.334;2023-03-23T03:48:02;100602.41;;;14.25
45393;BMP280;31129;44.810;10.334;2023-03-23T03:50:29;100591.75;;;14.38
45393;BMP280;31129;44.810;10.334;2023-03-23T03:52:55;100597.47;;;14.40
45393;BMP280;31129;44.810;10.334;2023-03-23T03:55:20;100602.91;;;14.29
45393;BMP280;31129;44.810;10.334;2023-03-23T03:57:50;100597.69;;;14.25
45393;BMP280;31129;44.810;10.334;2023-03-23T04:00:44;100597.19;;;14.27
45393;BMP280;31129;44.810;10.334;2023-03-23T04:03:13;100598.69;;;14.22
45393;BMP280;31129;44.810;10.334;2023-03-23T04:05:48;100598.16;;;14.24
45393;BMP280;31129;44.810;10.334;2023-03-23T04:08:13;100592.13;;;14.14
45393;BMP280;31129;44.810;10.334;2023-03-23T04:10:39;100601.16;;;14.26
45393;BMP280;31129;44.810;10.334;2023-03-23T04:13:06;100601.63;;;14.13
45393;BMP280;31129;44.810;10.334;2023-03-23T04:16:07;100613.84;;;14.18
45393;BMP280;31129;44.810;10.334;2023-03-23T04:18:34;100603.38;;;14.16
45393;BMP280;31129;44.810;10.334;2023-03-23T04:21:01;100613.81;;;14.12
45393;BMP280;31129;44.810;10.334;2023-03-23T04:23:29;100607.59;;;14.12
45393;BMP280;31129;44.810;10.334;2023-03-23T04:25:56;100616.59;;;14.18
45393;BMP280;31129;44.810;10.334;2023-03-23T04:28:28;100617.53;;;14.04
45393;BMP280;31129;44.810;10.334;2023-03-23T04:31:26;100614.84;;;14.09
45393;BMP280;31129;44.810;10.334;2023-03-23T04:34:01;100616.59;;;14.18
45393;BMP280;31129;44.810;10.334;2023-03-23T04:36:31;100621.31;;;14.12
45393;BMP280;31129;44.810;10.334;2023-03-23T04:39:02;100614.09;;;14.09
45393;BMP280;31129;44.810;10.334;2023-03-23T04:41:29;100617.06;;;14.11
45393;BMP280;31129;44.810;10.334;2023-03-23T04:44:13;100623.81;;;14.10
45393;BMP280;31129;44.810;10.334;2023-03-23T04:46:45;100629.53;;;14.12
45393;BMP280;31129;44.810;10.334;2023-03-23T04:49:15;100642.53;;;14.17
45393;BMP280;31129;44.810;10.334;2023-03-23T04:51:50;100639.28;;;14.13
45393;BMP280;31129;44.810;10.334;2023-03-23T04:54:23;100632.22;;;14.01
45393;BMP280;31129;44.810;10.334;2023-03-23T04:56:53;100634.53;;;14.13
45393;BMP280;31129;44.810;10.334;2023-03-23T04:59:24;100636.81;;;14.15
45393;BMP280;31129;44.810;10.334;2023-03-23T05:02:18;100643.47;;;14.03
45393;BMP280;31129;44.810;10.334;2023-03-23T05:04:45;100639.72;;;14.06
45393;BMP280;31129;44.810;10.334;2023-03-23T05:07:14;100645.47;;;14.02
45393;BMP280;31129;44.810;10.334;2023-03-23T05:09:47;100640.13;;;13.87
45393;BMP280;31129;44.810;10.334;2023-03-23T05:12:14;100655.09;;;13.86
45393;BMP280;31129;44.810;10.334;2023-03-23T05:14:50;100649.66;;;13.92
45393;BMP280;31129;44.810;10.334;2023-03-23T05:17:18;100654.94;;;14.01
45393;BMP280;31129;44.810;10.334;2023-03-23T05:19:45;100652.66;;;14.00
45393;BMP280;31129;44.810;10.334;2023-03-23T05:22:35;100649.66;;;13.92
45393;BMP280;31129;44.810;10.334;2023-03-23T05:25:03;100655.66;;;13.96
45393;BMP280;31129;44.810;10.334;2023-03-23T05:27:32;100649.66;;;13.92
45393;BMP280;31129;44.810;10.334;2023-03-23T05:30:02;100643.13;;;13.89
45393;BMP280;31129;44.810;10.334;2023-03-23T05:32:30;100649.75;;;14.09
45393;BMP280;31129;44.810;10.334;2023-03-23T05:35:01;100656.50;;;14.13
45393;BMP280;31129;44.810;10.334;2023-03-23T05:37:29;100656.66;;;13.99
45393;BMP280;31129;44.810;10.334;2023-03-23T05:40:05;100660.16;;;14.05
45393;BMP280;31129;44.810;10.334;2023-03-23T05:42:42;100664.72;;;14.08
45393;BMP280;31129;44.810;10.334;2023-03-23T05:45:13;100664.94;;;14.04
45393;BMP280;31129;44.810;10.334;2023-03-23T05:47:40;100666.38;;;14.00
45393;BMP280;31129;44.810;10.334;2023-03-23T05:50:10;100677.16;;;14.03
45393;BMP280;31129;44.810;10.334;2023-03-23T05:52:37;100675.69;;;14.08
45393;BMP280;31129;44.810;10.334;2023-03-23T05:55:06;100684.94;;;14.10
45393;BMP280;31129;44.810;10.334;2023-03-23T05:57:34;100691.34;;;14.02
45393;BMP280;31129;44.810;10.334;2023-03-23T06:00:04;100688.84;;;13.98
45393;BMP280;31129;44.810;10.334;2023-03-23T06:02:41;100697.09;;;14.04
45393;BMP280;31129;44.810;10.334;2023-03-23T06:05:16;100686.41;;;14.11
45393;BMP280;31129;44.810;10.334;2023-03-23T06:07:46;100693.91;;;14.11
45393;BMP280;31129;44.810;10.334;2023-03-23T06:10:11;100691.66;;;14.09
45393;BMP280;31129;44.810;10.334;2023-03-23T06:12:39;100698.88;;;14.07
45393;BMP280;31129;44.810;10.334;2023-03-23T06:15:11;100699.84;;;14.04
45393;BMP280;31129;44.810;10.334;2023-03-23T06:17:58;100698.09;;;14.06
45393;BMP280;31129;44.810;10.334;2023-03-23T06:20:28;100706.63;;;14.14
45393;BMP280;31129;44.810;10.334;2023-03-23T06:22:55;100708.38;;;14.17
45393;BMP280;31129;44.810;10.334;2023-03-23T06:25:27;100705.19;;;14.24
45393;BMP280;31129;44.810;10.334;2023-03-23T06:27:53;100708.72;;;14.30
45393;BMP280;31129;44.810;10.334;2023-03-23T06:30:20;100708.72;;;14.36
45393;BMP280;31129;44.810;10.334;2023-03-23T06:32:46;100713.75;;;14.37
45393;BMP280;31129;44.810;10.334;2023-03-23T06:35:13;100720.03;;;14.43
45393;BMP280;31129;44.810;10.334;2023-03-23T06:37:48;100725.50;;;14.38
45393;BMP280;31129;44.810;10.334;2023-03-23T06:40:28;100721.47;;;14.33
45393;BMP280;31129;44.810;10.334;2023-03-23T06:42:58;100725.03;;;14.45
45393;BMP280;31129;44.810;10.334;2023-03-23T06:45:47;100721.72;;;14.35
45393;BMP280;31129;44.810;10.334;2023-03-23T06:48:32;100720.84;;;14.55
45393;BMP280;31129;44.810;10.334;2023-03-23T06:50:58;100723.84;;;14.57
45393;BMP280;31129;44.810;10.334;2023-03-23T06:53:25;100727.84;;;14.61
45393;BMP280;31129;44.810;10.334;2023-03-23T06:55:53;100729.88;;;14.72
45393;BMP280;31129;44.810;10.334;2023-03-23T06:58:18;100731.38;;;14.73
45393;BMP280;31129;44.810;10.334;2023-03-23T07:00:44;100737.63;;;14.74
45393;BMP280;31129;44.810;10.334;2023-03-23T07:03:16;100717.47;;;14.93
45393;BMP280;31129;44.810;10.334;2023-03-23T07:05:46;100731.25;;;14.99
45393;BMP280;31129;44.810;10.334;2023-03-23T07:08:11;100727.47;;;15.02
45393;BMP280;31129;44.810;10.334;2023-03-23T07:10:53;100724.47;;;15.06
45393;BMP280;31129;44.810;10.334;2023-03-23T07:13:22;100719.72;;;15.06
45393;BMP280;31129;44.810;10.334;2023-03-23T07:15:52;100726.22;;;14.97
45393;BMP280;31129;44.810;10.334;2023-03-23T07:18:19;100731.28;;;15.21
45393;BMP280;31129;44.810;10.334;2023-03-23T07:20:48;100729.00;;;15.14
45393;BMP280;31129;44.810;10.334;2023-03-23T07:23:15;100728.72;;;15.12
45393;BMP280;31129;44.810;10.334;2023-03-23T07:25:45;100728.53;;;15.16
45393;BMP280;31129;44.810;10.334;2023-03-23T07:28:17;100729.47;;;15.13
45393;BMP280;31129;44.810;10.334;2023-03-23T07:30:44;100731.75;;;15.20
45393;BMP280;31129;44.810;10.334;2023-03-23T07:33:10;100722.28;;;15.21
45393;BMP280;31129;44.810;10.334;2023-03-23T07:35:36;100721.53;;;15.31
45393;BMP280;31129;44.810;10.334;2023-03-23T07:38:06;100729.31;;;15.44
45393;BMP280;31129;44.810;10.334;2023-03-23T07:40:33;100729.78;;;15.48
45393;BMP280;31129;44.810;10.334;2023-03-23T07:43:04;100733.03;;;15.41
45393;BMP280;31129;44.810;10.334;2023-03-23T07:45:52;100732.53;;;15.43
45393;BMP280;31129;44.810;10.334;2023-03-23T07:48:21;100733.03;;;15.47
45393;BMP280;31129;44.810;10.334;2023-03-23T07:50:47;100732.06;;;15.44
45393;BMP280;31129;44.810;10.334;2023-03-23T07:53:14;100735.78;;;15.52
45393;BMP280;31129;44.810;10.334;2023-03-23T07:55:42;100737.78;;;15.46
45393;BMP280;31129;44.810;10.334;2023-03-23T07:58:37;100725.28;;;15.51
45393;BMP280;31129;44.810;10.334;2023-03-23T08:01:02;100723.53;;;15.70
45393;BMP280;31129;44.810;10.334;2023-03-23T08:03:30;100713.00;;;15.79
45393;BMP280;31129;44.810;10.334;2023-03-23T08:06:26;100714.78;;;15.77
45393;BMP280;31129;44.810;10.334;2023-03-23T08:09:11;100718.50;;;15.74
45393;BMP280;31129;44.810;10.334;2023-03-23T08:11:57;100721.00;;;15.94
45393;BMP280;31129;44.810;10.334;2023-03-23T08:14:45;100723.50;;;15.92
45393;BMP280;31129;44.810;10.334;2023-03-23T08:17:34;100727.00;;;15.93
45393;BMP280;31129;44.810;10.334;2023-03-23T08:20:18;100727.47;;;16.08
45393;BMP280;31129;44.810;10.334;2023-03-23T08:22:59;100736.44;;;16.20
45393;BMP280;31129;44.810;10.334;2023-03-23T08:25:59;100725.22;;;16.12
45393;BMP280;31129;44.810;10.334;2023-03-23T08:28:43;100741.72;;;16.23
45393;BMP280;31129;44.810;10.334;2023-03-23T08:31:41;100747.50;;;16.03
45393;BMP280;31129;44.810;10.334;2023-03-23T08:34:21;100744.75;;;16.08
45393;BMP280;31129;44.810;10.334;2023-03-23T08:37:10;100749.75;;;16.04
45393;BMP280;31129;44.810;10.334;2023-03-23T08:39:56;100752.50;;;16.15
45393;BMP280;31129;44.810;10.334;2023-03-23T08:42:28;100746.47;;;16.23
45393;BMP280;31129;44.810;10.334;2023-03-23T08:45:24;100751.97;;;16.23
45393;BMP280;31129;44.810;10.334;2023-03-23T08:48:08;100751.19;;;16.28
45393;BMP280;31129;44.810;10.334;2023-03-23T08:50:39;100748.91;;;16.37
45393;BMP280;31129;44.810;10.334;2023-03-23T08:53:19;100767.66;;;16.44
45393;BMP280;31129;44.810;10.334;2023-03-23T08:55:48;100761.91;;;16.42
45393;BMP280;31129;44.810;10.334;2023-03-23T08:58:14;100759.16;;;16.42
45393;BMP280;31129;44.810;10.334;2023-03-23T09:01:07;100760.41;;;16.52
45393;BMP280;31129;44.810;10.334;2023-03-23T09:03:53;100763.19;;;16.41
45393;BMP280;31129;44.810;10.334;2023-03-23T09:06:40;100776.22;;;16.41
45393;BMP280;31129;44.810;10.334;2023-03-23T09:09:06;100766.59;;;16.59
45393;BMP280;31129;44.810;10.334;2023-03-23T09:11:33;100764.34;;;16.68
45393;BMP280;31129;44.810;10.334;2023-03-23T09:14:02;100766.56;;;16.64
45393;BMP280;31129;44.810;10.334;2023-03-23T09:16:28;100772.31;;;16.77
45393;BMP280;31129;44.810;10.334;2023-03-23T09:18:54;100769.25;;;16.81
45393;BMP280;31129;44.810;10.334;2023-03-23T09:21:23;100765.41;;;16.95
45393;BMP280;31129;44.810;10.334;2023-03-23T09:23:48;100769.50;;;16.88
45393;BMP280;31129;44.810;10.334;2023-03-23T09:26:14;100770.72;;;16.93
45393;BMP280;31129;44.810;10.334;2023-03-23T09:28:40;100769.13;;;17.09
45393;BMP280;31129;44.810;10.334;2023-03-23T09:31:05;100763.06;;;17.16
45393;BMP280;31129;44.810;10.334;2023-03-23T09:33:31;100766.53;;;17.22
45393;BMP280;31129;44.810;10.334;2023-03-23T09:36:00;100764.97;;;17.26
45393;BMP280;31129;44.810;10.334;2023-03-23T09:38:27;100771.50;;;17.29
45393;BMP280;31129;44.810;10.334;2023-03-23T09:46:30;100763.78;;;17.82
45393;BMP280;31129;44.810;10.334;2023-03-23T09:49:00;100773.31;;;17.81
45393;BMP280;31129;44.810;10.334;2023-03-23T09:56:36;100763.66;;;17.68
45393;BMP280;31129;44.810;10.334;2023-03-23T10:01:37;100781.84;;;17.83
45393;BMP280;31129;44.810;10.334;2023-03-23T10:04:32;100779.66;;;17.76
45393;BMP280;31129;44.810;10.334;2023-03-23T10:07:05;100772.88;;;17.77
45393;BMP280;31129;44.810;10.334;2023-03-23T10:09:31;100772.81;;;17.82
45393;BMP280;31129;44.810;10.334;2023-03-23T10:15:04;100777.88;;;17.78
45393;BMP280;31129;44.810;10.334;2023-03-23T10:17:45;100780.56;;;17.84
45393;BMP280;31129;44.810;10.334;2023-03-23T10:22:42;100773.75;;;17.90
45393;BMP280;31129;44.810;10.334;2023-03-23T10:28:01;100763.47;;;17.85
45393;BMP280;31129;44.810;10.334;2023-03-23T10:30:33;100767.16;;;18.18
45393;BMP280;31129;44.810;10.334;2023-03-23T10:33:15;100764.25;;;18.10
45393;BMP280;31129;44.810;10.334;2023-03-23T10:35:51;100766.38;;;18.23
45393;BMP280;31129;44.810;10.334;2023-03-23T10:38:27;100769.72;;;18.16
45393;BMP280;31129;44.810;10.334;2023-03-23T10:41:10;100757.50;;;18.30
45393;BMP280;31129;44.810;10.334;2023-03-23T10:43:40;100757.00;;;18.50
45393;BMP280;31129;44.810;10.334;2023-03-23T10:46:18;100758.84;;;18.61
45393;BMP280;31129;44.810;10.334;2023-03-23T10:48:49;100761.41;;;18.77
45393;BMP280;31129;44.810;10.334;2023-03-23T10:51:16;100752.13;;;18.75
45393;BMP280;31129;44.810;10.334;2023-03-23T10:53:49;100762.13;;;18.78
45393;BMP280;31129;44.810;10.334;2023-03-23T10:56:42;100750.19;;;18.70
45393;BMP280;31129;44.810;10.334;2023-03-23T10:59:29;100743.84;;;18.75
45393;BMP280;31129;44.810;10.334;2023-03-23T11:01:57;100750.06;;;18.81
45393;BMP280;31129;44.810;10.334;2023-03-23T11:04:24;100743.38;;;18.89
45393;BMP280;31129;44.810;10.334;2023-03-23T11:06:57;100746.25;;;19.16
45393;BMP280;31129;44.810;10.334;2023-03-23T11:09:38;100743.22;;;19.46
45393;BMP280;31129;44.810;10.334;2023-03-23T11:12:04;100745.28;;;19.45
45393;BMP280;31129;44.810;10.334;2023-03-23T11:14:34;100738.78;;;19.69
45393;BMP280;31129;44.810;10.334;2023-03-23T11:17:05;100739.50;;;19.43
45393;BMP280;31129;44.810;10.334;2023-03-23T11:19:36;100736.03;;;19.24
45393;BMP280;31129;44.810;10.334;2023-03-23T11:24:33;100718.16;;;19.57
45393;BMP280;31129;44.810;10.334;2023-03-23T11:26:59;100714.53;;;19.62
45393;BMP280;31129;44.810;10.334;2023-03-23T11:29:27;100711.94;;;19.64
45393;BMP280;31129;44.810;10.334;2023-03-23T11:32:05;100721.31;;;19.48
45393;BMP280;31129;44.810;10.334;2023-03-23T11:39:53;100714.84;;;19.58
45393;BMP280;31129;44.810;10.334;2023-03-23T11:42:24;100722.16;;;19.69
45393;BMP280;31129;44.810;10.334;2023-03-23T11:44:54;100719.19;;;19.67
45393;BMP280;31129;44.810;10.334;2023-03-23T11:47:35;100719.09;;;19.72
45393;BMP280;31129;44.810;10.334;2023-03-23T11:50:17;100727.28;;;19.65
45393;BMP280;31129;44.810;10.334;2023-03-23T11:55:28;100724.50;;;19.52
45393;BMP280;31129;44.810;10.334;2023-03-23T11:58:00;100722.59;;;19.60
45393;BMP280;31129;44.810;10.334;2023-03-23T12:00:27;100727.50;;;19.54
45393;BMP280;31129;44.810;10.334;2023-03-23T12:02:58;100724.63;;;19.72
45393;BMP280;31129;44.810;10.334;2023-03-23T12:06:23;100713.44;;;19.78
45393;BMP280;31129;44.810;10.334;2023-03-23T12:14:59;100706.41;;;20.03
45393;BMP280;31129;44.810;10.334;2023-03-23T12:17:37;100705.03;;;19.70
45393;BMP280;31129;44.810;10.334;2023-03-23T12:20:31;100702.78;;;19.56
45393;BMP280;31129;44.810;10.334;2023-03-23T12:25:59;100688.94;;;19.43
45393;BMP280;31129;44.810;10.334;2023-03-23T12:28:49;100687.44;;;19.42
45393;BMP280;31129;44.810;10.334;2023-03-23T12:31:43;100670.31;;;19.56
45393;BMP280;31129;44.810;10.334;2023-03-23T12:34:20;100670.75;;;19.60
45393;BMP280;31129;44.810;10.334;2023-03-23T12:44:47;100656.47;;;20.17
45393;BMP280;31129;44.810;10.334;2023-03-23T12:50:34;100646.06;;;20.85
45393;BMP280;31129;44.810;10.334;2023-03-23T12:53:21;100649.97;;;21.10
45393;BMP280;31129;44.810;10.334;2023-03-23T12:58:21;100647.19;;;21.38
45393;BMP280;31129;44.810;10.334;2023-03-23T13:01:04;100647.31;;;21.69
45393;BMP280;31129;44.810;10.334;2023-03-23T13:03:56;100634.34;;;21.28
45393;BMP280;31129;44.810;10.334;2023-03-23T13:06:25;100635.97;;;21.23
45393;BMP280;31129;44.810;10.334;2023-03-23T13:09:14;100627.75;;;21.38
45393;BMP280;31129;44.810;10.334;2023-03-23T13:11:41;100629.69;;;21.23
45393;BMP280;31129;44.810;10.334;2023-03-23T13:22:23;100609.81;;;21.91
45393;BMP280;31129;44.810;10.334;2023-03-23T13:24:54;100607.78;;;21.99
45393;BMP280;31129;44.810;10.334;2023-03-23T13:27:25;100600.50;;;21.29
45393;BMP280;31129;44.810;10.334;2023-03-23T13:29:53;100593.78;;;21.61
45393;BMP280;31129;44.810;10.334;2023-03-23T13:32:19;100593.88;;;21.91
45393;BMP280;31129;44.810;10.334;2023-03-23T13:34:47;100603.59;;;22.66
45393;BMP280;31129;44.810;10.334;2023-03-23T13:49:58;100589.03;;;23.61
45393;BMP280;31129;44.810;10.334;2023-03-23T13:58:21;100581.94;;;23.92
45393;BMP280;31129;44.810;10.334;2023-03-23T14:03:38;100575.50;;;23.57
45393;BMP280;31129;44.810;10.334;2023-03-23T14:06:11;100572.81;;;23.99
45393;BMP280;31129;44.810;10.334;2023-03-23T14:09:04;100555.53;;;23.28
45393;BMP280;31129;44.810;10.334;2023-03-23T14:11:31;100554.91;;;23.45
45393;BMP280;31129;44.810;10.334;2023-03-23T14:14:03;100550.13;;;24.20
45393;BMP280;31129;44.810;10.334;2023-03-23T14:19:03;100547.97;;;24.87
45393;BMP280;31129;44.810;10.334;2023-03-23T14:21:40;100551.56;;;25.41
45393;BMP280;31129;44.810;10.334;2023-03-23T14:24:12;100549.84;;;25.02
45393;BMP280;31129;44.810;10.334;2023-03-23T14:26:38;100540.25;;;25.66
45393;BMP280;31129;44.810;10.334;2023-03-23T14:29:04;100547.03;;;25.72
45393;BMP280;31129;44.810;10.334;2023-03-23T14:31:31;100547.06;;;25.92
45393;BMP280;31129;44.810;10.334;2023-03-23T14:34:02;100536.38;;;26.17
45393;BMP280;31129;44.810;10.334;2023-03-23T14:36:29;100539.22;;;25.44
45393;BMP280;31129;44.810;10.334;2023-03-23T14:39:21;100542.56;;;26.06
45393;BMP280;31129;44.810;10.334;2023-03-23T14:41:47;100540.97;;;26.12
45393;BMP280;31129;44.810;10.334;2023-03-23T14:44:17;100542.69;;;25.98
45393;BMP280;31129;44.810;10.334;2023-03-23T14:46:43;100541.13;;;25.42
45393;BMP280;31129;44.810;10.334;2023-03-23T14:49:13;100544.41;;;25.84
45393;BMP280;31129;44.810;10.334;2023-03-23T14:51:50;100545.72;;;25.47
45393;BMP280;31129;44.810;10.334;2023-03-23T14:54:21;100532.38;;;25.28
45393;BMP280;31129;44.810;10.334;2023-03-23T14:56:47;100538.91;;;25.13
45393;BMP280;31129;44.810;10.334;2023-03-23T14:59:13;100550.59;;;25.83
45393;BMP280;31129;44.810;10.334;2023-03-23T15:01:40;100550.50;;;26.09
45393;BMP280;31129;44.810;10.334;2023-03-23T15:04:12;100550.16;;;25.86
45393;BMP280;31129;44.810;10.334;2023-03-23T15:06:40;100542.88;;;26.10
45393;BMP280;31129;44.810;10.334;2023-03-23T15:09:13;100539.75;;;26.06
45393;BMP280;31129;44.810;10.334;2023-03-23T15:11:40;100535.22;;;25.74
45393;BMP280;31129;44.810;10.334;2023-03-23T15:14:18;100536.03;;;25.57
45393;BMP280;31129;44.810;10.334;2023-03-23T15:16:53;100529.06;;;25.66
45393;BMP280;31129;44.810;10.334;2023-03-23T15:22:04;100529.06;;;25.75
45393;BMP280;31129;44.810;10.334;2023-03-23T15:24:37;100528.22;;;25.92
45393;BMP280;31129;44.810;10.334;2023-03-23T15:27:17;100527.41;;;26.18
45393;BMP280;31129;44.810;10.334;2023-03-23T15:29:53;100530.06;;;26.16
45393;BMP280;31129;44.810;10.334;2023-03-23T15:32:21;100521.84;;;26.38
45393;BMP280;31129;44.810;10.334;2023-03-23T15:34:47;100530.84;;;25.81
45393;BMP280;31129;44.810;10.334;2023-03-23T15:37:30;100528.22;;;25.92
45393;BMP280;31129;44.810;10.334;2023-03-23T15:39:57;100535.00;;;25.89
45393;BMP280;31129;44.810;10.334;2023-03-23T15:42:33;100540.06;;;26.10
45393;BMP280;31129;44.810;10.334;2023-03-23T15:47:51;100533.91;;;26.31
45393;BMP280;31129;44.810;10.334;2023-03-23T15:50:33;100530.53;;;26.22
45393;BMP280;31129;44.810;10.334;2023-03-23T15:53:01;100534.75;;;26.23
45393;BMP280;31129;44.810;10.334;2023-03-23T15:55:38;100533.28;;;26.03
45393;BMP280;31129;44.810;10.334;2023-03-23T15:58:11;100531.72;;;26.48
45393;BMP280;31129;44.810;10.334;2023-03-23T16:00:38;100536.72;;;26.88
45393;BMP280;31129;44.810;10.334;2023-03-23T16:03:05;100530.53;;;26.51
45393;BMP280;31129;44.810;10.334;2023-03-23T16:05:32;100531.84;;;26.31